Weather at Four Mile Creek Ranch Airport

Public forecast

Using degrees Fahrenheit for public forecast. Weather courtesy of forecast.io.

Closest aviation weather report (METAR) to Four Mile Creek Ranch Airport

Closest report is Little Rock Air Force Base, 6.4 nm (11.9 km) SSW. Retrieved 2021/08/03 18:56 UTC (34 minutes ago):

KLRF 031856Z AUTO 04007KT 10SM FEW044 SCT140 SCT170 BKN190 30/18 A3002 RMK AO2 SLP166 T02980176

Closest aviation forecast (TAF) to Four Mile Creek Ranch Airport

Closest forecast is Little Rock Air Force Base, 6.4 nm (11.9 km) SSW. Retrieved 2021/08/03 15:57 UTC (4 hours ago):

TAF TAF KLRF 031500Z 0315/0421 04006KT 9999 SCT090 SCT250 QNH2996INS BECMG 0409/0410 03006KT 9999 BKN040 QNH3002INS BECMG 0415/0416 05012KT 9999 FEW040 SCT060 QNH3007INS BECMG 0418/0419 02006KT 9999 SCT070 QNH3003INS TX30/0320Z TN19/0410Z